createdAt,value
2018-12-14T00:00:16.007Z,26.83
2018-12-14T00:02:44.403Z,27.60
2018-12-14T00:05:12.987Z,24.63
2018-12-14T00:07:41.134Z,23.73
2018-12-14T00:10:09.806Z,26.47
2018-12-14T00:12:38.119Z,26.13
2018-12-14T00:15:07.534Z,25.23
2018-12-14T00:17:35.719Z,25.03
2018-12-14T00:20:07.003Z,27.07
2018-12-14T00:22:35.083Z,30.40
2018-12-14T00:25:04.092Z,23.67
2018-12-14T00:27:32.296Z,27.27
2018-12-14T00:30:00.465Z,25.90
2018-12-14T00:32:28.992Z,26.20
2018-12-14T00:34:57.107Z,29.73
2018-12-14T00:37:25.223Z,27.07
2018-12-14T00:39:53.414Z,26.20
2018-12-14T00:42:21.684Z,30.37
2018-12-14T00:44:49.785Z,28.07
2018-12-14T00:47:18.122Z,28.50
2018-12-14T00:49:46.268Z,27.57
2018-12-14T00:52:14.390Z,30.37
2018-12-14T00:54:42.563Z,30.17
2018-12-14T00:57:10.687Z,29.10
2018-12-14T00:59:38.794Z,28.83
2018-12-14T01:02:11.614Z,30.20
2018-12-14T01:04:39.782Z,30.60
2018-12-14T01:07:07.920Z,31.57
2018-12-14T01:09:36.164Z,30.80
2018-12-14T01:12:04.593Z,34.97
2018-12-14T01:14:32.787Z,34.87
2018-12-14T01:17:01.086Z,35.70
2018-12-14T01:19:29.248Z,32.97
2018-12-14T01:21:57.376Z,33.43
2018-12-14T01:24:25.518Z,32.37
2018-12-14T01:26:53.950Z,32.00
2018-12-14T01:29:22.104Z,32.90
2018-12-14T01:31:50.403Z,33.73
2018-12-14T01:34:18.519Z,36.43
2018-12-14T01:36:46.872Z,31.47
2018-12-14T01:39:15.166Z,32.20
2018-12-14T01:41:43.485Z,34.50
2018-12-14T01:44:11.663Z,32.77
2018-12-14T01:46:39.762Z,34.30
2018-12-14T01:49:08.045Z,39.57
2018-12-14T01:51:36.132Z,35.40
2018-12-14T01:54:04.515Z,33.37
2018-12-14T01:56:32.819Z,35.10
2018-12-14T01:59:01.168Z,32.60
2018-12-14T02:01:29.294Z,31.70
2018-12-14T02:03:57.589Z,34.30
2018-12-14T02:06:25.843Z,31.83
2018-12-14T02:08:54.163Z,37.80
2018-12-14T02:11:22.293Z,35.13
2018-12-14T02:13:50.553Z,30.50
2018-12-14T02:16:18.638Z,33.73
2018-12-14T02:18:46.962Z,37.77
2018-12-14T02:21:15.095Z,32.17
2018-12-14T02:23:43.339Z,32.97
2018-12-14T02:26:11.435Z,34.83
2018-12-14T02:28:39.839Z,34.90
2018-12-14T02:31:08.010Z,34.20
2018-12-14T02:33:36.206Z,32.83
2018-12-14T02:36:04.322Z,34.30
2018-12-14T02:38:32.665Z,33.77
2018-12-14T02:41:00.764Z,31.03
2018-12-14T02:43:28.899Z,36.37
2018-12-14T02:45:57.043Z,33.67
2018-12-14T02:48:25.288Z,34.03
2018-12-14T02:50:53.414Z,33.53
2018-12-14T02:53:21.792Z,30.67
2018-12-14T02:55:49.877Z,32.87
2018-12-14T02:58:17.931Z,31.93
2018-12-14T03:00:46.065Z,35.47
2018-12-14T03:03:14.341Z,34.37
2018-12-14T03:05:42.688Z,34.83
2018-12-14T03:08:10.960Z,33.87
2018-12-14T03:10:39.162Z,32.53
2018-12-14T03:13:07.442Z,35.07
2018-12-14T03:15:35.678Z,35.23
2018-12-14T03:18:04.028Z,37.20
2018-12-14T03:20:32.360Z,35.10
2018-12-14T03:23:00.596Z,35.30
2018-12-14T03:25:28.920Z,33.70
2018-12-14T03:27:57.291Z,33.07
2018-12-14T03:30:25.604Z,35.13
2018-12-14T03:32:53.901Z,34.33
2018-12-14T03:35:22.075Z,33.90
2018-12-14T03:37:50.268Z,33.57
2018-12-14T03:40:18.584Z,34.10
2018-12-14T03:42:47.403Z,33.43
2018-12-14T03:45:15.721Z,33.80
2018-12-14T03:47:43.832Z,34.37
2018-12-14T03:50:12.274Z,32.40
2018-12-14T03:52:40.403Z,33.30
2018-12-14T03:55:08.509Z,33.87
2018-12-14T03:57:36.703Z,32.30
2018-12-14T04:00:09.316Z,34.27
2018-12-14T04:02:37.606Z,34.87
2018-12-14T04:05:06.291Z,32.10
2018-12-14T04:07:34.450Z,29.30
2018-12-14T04:10:03.622Z,32.30
2018-12-14T04:12:31.756Z,28.90
2018-12-14T04:15:00.011Z,33.07
2018-12-14T04:17:28.112Z,36.13
2018-12-14T04:19:56.395Z,34.30
2018-12-14T04:22:24.590Z,30.67
2018-12-14T04:24:52.740Z,27.30
2018-12-14T04:27:20.961Z,31.20
2018-12-14T04:29:49.115Z,32.30
2018-12-14T04:32:17.256Z,31.17
2018-12-14T04:34:45.512Z,28.23
2018-12-14T04:37:13.631Z,28.40
2018-12-14T04:39:41.793Z,27.93
2018-12-14T04:42:10.133Z,29.43
2018-12-14T04:44:38.415Z,28.10
2018-12-14T04:47:07.369Z,31.40
2018-12-14T04:49:36.093Z,28.27
2018-12-14T04:52:08.805Z,29.93
2018-12-14T04:54:37.126Z,28.67
2018-12-14T04:57:05.532Z,29.63
2018-12-14T04:59:33.698Z,30.43
2018-12-14T05:02:02.187Z,29.20
2018-12-14T05:04:30.549Z,30.47
2018-12-14T05:06:58.708Z,27.60
2018-12-14T05:09:26.991Z,25.70
2018-12-14T05:11:55.193Z,28.00
2018-12-14T05:14:23.548Z,28.47
2018-12-14T05:16:51.866Z,30.50
2018-12-14T05:19:19.933Z,26.50
2018-12-14T05:21:48.301Z,28.00
2018-12-14T05:24:16.695Z,29.17
2018-12-14T05:26:45.064Z,28.63
2018-12-14T05:29:13.171Z,31.23
2018-12-14T05:31:41.468Z,28.23
2018-12-14T05:34:09.601Z,30.73
2018-12-14T05:36:37.820Z,31.60
2018-12-14T05:39:06.637Z,28.90
2018-12-14T05:41:35.032Z,28.30
2018-12-14T05:44:03.272Z,28.77
2018-12-14T05:46:31.494Z,26.90
2018-12-14T05:48:59.612Z,29.23
2018-12-14T05:51:27.736Z,29.13
2018-12-14T05:53:55.922Z,29.03
2018-12-14T05:56:25.100Z,29.10
2018-12-14T05:58:53.266Z,30.93
2018-12-14T06:01:21.656Z,30.20
2018-12-14T06:06:58.844Z,30.03
2018-12-14T06:09:26.982Z,30.80
2018-12-14T06:11:55.152Z,31.70
2018-12-14T06:14:23.988Z,30.97
2018-12-14T06:16:52.314Z,28.67
2018-12-14T06:19:20.426Z,32.90
2018-12-14T06:21:48.545Z,30.33
2018-12-14T06:24:16.939Z,35.13
2018-12-14T06:26:45.204Z,33.73
2018-12-14T06:29:13.306Z,32.13
2018-12-14T06:31:41.431Z,33.63
2018-12-14T06:34:09.554Z,29.83
2018-12-14T06:36:37.690Z,34.57
2018-12-14T06:39:06.965Z,30.27
2018-12-14T06:41:35.639Z,32.30
2018-12-14T06:44:03.886Z,32.73
2018-12-14T06:46:31.992Z,34.87
2018-12-14T06:49:00.098Z,34.43
2018-12-14T06:51:28.270Z,33.67
2018-12-14T06:53:56.627Z,32.50
2018-12-14T06:56:25.024Z,33.97
2018-12-14T06:58:53.358Z,33.73
2018-12-14T07:01:21.459Z,30.33
2018-12-14T07:03:49.785Z,34.57
2018-12-14T07:06:17.940Z,32.33
2018-12-14T07:08:46.389Z,31.57
2018-12-14T07:11:14.760Z,34.33
2018-12-14T07:13:42.910Z,34.47
2018-12-14T07:16:11.282Z,33.83
2018-12-14T07:18:39.649Z,35.00
2018-12-14T07:21:07.895Z,31.03
2018-12-14T07:23:36.149Z,37.60
2018-12-14T07:26:04.349Z,33.33
2018-12-14T07:28:33.195Z,36.83
2018-12-14T07:31:01.313Z,34.33
2018-12-14T07:33:29.503Z,34.33
2018-12-14T07:35:57.740Z,34.20
2018-12-14T07:38:25.902Z,33.40
2018-12-14T07:40:54.755Z,35.60
2018-12-14T07:43:28.319Z,31.57
2018-12-14T07:45:53.091Z,34.77
2018-12-14T07:48:21.274Z,35.00
2018-12-14T07:50:49.471Z,34.07
2018-12-14T07:53:17.543Z,38.50
2018-12-14T07:55:45.734Z,36.77
2018-12-14T07:58:13.966Z,32.50
2018-12-14T08:00:42.930Z,37.03
2018-12-14T08:03:11.909Z,34.33
2018-12-14T08:05:40.918Z,32.30
2018-12-14T08:08:10.517Z,34.70
2018-12-14T08:10:39.552Z,31.53
2018-12-14T08:13:08.673Z,34.93
2018-12-14T08:15:37.261Z,33.30
2018-12-14T08:18:06.180Z,29.77
2018-12-14T08:20:51.686Z,36.27
2018-12-14T08:23:20.180Z,35.13
2018-12-14T08:25:51.634Z,29.23
2018-12-14T08:28:20.396Z,32.57
2018-12-14T08:30:48.603Z,31.67
2018-12-14T08:33:16.959Z,34.33
2018-12-14T08:35:45.219Z,36.17
2018-12-14T08:38:13.599Z,32.73
2018-12-14T08:40:41.934Z,32.80
2018-12-14T08:43:10.393Z,34.47
2018-12-14T08:45:38.491Z,32.33
2018-12-14T08:48:07.379Z,32.87
2018-12-14T08:50:35.584Z,32.13
2018-12-14T08:53:05.145Z,32.87
2018-12-14T08:55:33.343Z,35.30
2018-12-14T08:58:01.641Z,33.33
2018-12-14T09:00:29.934Z,35.27
2018-12-14T09:02:58.397Z,33.80
2018-12-14T09:05:27.308Z,34.27
2018-12-14T09:07:55.546Z,32.90
2018-12-14T09:10:23.893Z,32.93
2018-12-14T09:12:52.122Z,34.70
2018-12-14T09:15:20.442Z,34.40
2018-12-14T09:17:48.784Z,32.50
2018-12-14T09:20:17.422Z,32.83
2018-12-14T09:22:46.841Z,35.53
2018-12-14T09:25:14.971Z,34.57
2018-12-14T09:27:43.079Z,32.57
2018-12-14T09:30:11.497Z,32.43
2018-12-14T09:32:39.870Z,33.03
2018-12-14T09:35:08.241Z,33.50
2018-12-14T09:37:36.377Z,33.13
2018-12-14T09:40:05.552Z,31.87
2018-12-14T09:42:33.714Z,33.50
2018-12-14T09:45:02.029Z,35.20
2018-12-14T09:47:30.200Z,29.50
2018-12-14T09:49:58.349Z,32.30
2018-12-14T09:52:26.482Z,32.60
2018-12-14T09:54:54.766Z,32.57
2018-12-14T09:57:23.240Z,32.00
2018-12-14T09:59:51.519Z,33.03
2018-12-14T10:02:19.683Z,32.07
2018-12-14T10:04:48.014Z,33.20
2018-12-14T10:07:16.136Z,31.87
2018-12-14T10:09:44.616Z,32.10
2018-12-14T10:12:12.803Z,31.27
2018-12-14T10:15:59.576Z,30.57
2018-12-14T10:18:27.840Z,27.37
2018-12-14T10:20:56.011Z,29.77
2018-12-14T10:23:24.261Z,30.17
2018-12-14T10:25:53.157Z,29.63
2018-12-14T10:28:21.345Z,27.87
2018-12-14T10:30:49.573Z,28.93
2018-12-14T10:33:17.796Z,28.77
2018-12-14T10:35:46.219Z,29.17
2018-12-14T10:38:15.037Z,27.67
2018-12-14T10:40:43.258Z,28.13
2018-12-14T10:43:11.512Z,29.40
2018-12-14T10:45:40.139Z,28.40
2018-12-14T10:48:08.273Z,28.70
2018-12-14T10:50:39.685Z,30.20
2018-12-14T10:53:12.411Z,28.67
2018-12-14T10:55:40.986Z,30.77
2018-12-14T10:58:09.303Z,29.73
2018-12-14T11:00:43.579Z,30.37
2018-12-14T11:03:11.864Z,29.17
2018-12-14T11:05:40.862Z,29.10
2018-12-14T11:08:09.031Z,29.40
2018-12-14T11:10:37.186Z,29.97
2018-12-14T11:13:05.373Z,26.73
2018-12-14T11:15:41.193Z,28.03
2018-12-14T11:18:09.478Z,31.37
2018-12-14T11:20:37.849Z,31.67
2018-12-14T11:23:06.009Z,26.77
2018-12-14T11:25:34.321Z,31.13
2018-12-14T11:28:02.507Z,27.87
2018-12-14T11:30:31.396Z,29.50
2018-12-14T11:32:59.617Z,26.03
2018-12-14T11:35:27.830Z,29.37
2018-12-14T11:37:56.001Z,24.90
2018-12-14T11:40:24.309Z,26.80
2018-12-14T11:42:53.133Z,27.63
2018-12-14T11:45:21.363Z,30.07
2018-12-14T11:47:49.507Z,27.57
2018-12-14T11:50:17.668Z,22.00
2018-12-14T11:52:45.966Z,25.30
2018-12-14T11:55:14.137Z,24.60
2018-12-14T11:57:42.308Z,27.67
2018-12-14T12:00:14.085Z,36.97
2018-12-14T12:02:43.269Z,26.30
2018-12-14T12:05:11.727Z,25.07
2018-12-14T12:07:41.085Z,28.17
2018-12-14T12:10:10.627Z,25.13
2018-12-14T12:12:39.162Z,26.67
2018-12-14T12:15:07.543Z,26.53
2018-12-14T12:17:37.307Z,27.60
2018-12-14T12:20:07.101Z,25.27
2018-12-14T12:22:35.232Z,28.67
2018-12-14T12:25:03.698Z,25.73
2018-12-14T12:27:31.813Z,29.13
2018-12-14T12:29:59.908Z,24.97
2018-12-14T12:32:28.314Z,28.17
2018-12-14T12:34:56.848Z,28.83
2018-12-14T12:40:08.003Z,27.47
2018-12-14T12:42:36.145Z,28.43
2018-12-14T12:45:05.220Z,28.03
2018-12-14T12:47:33.327Z,77.40
2018-12-14T12:50:01.604Z,30.87
2018-12-14T12:52:29.771Z,28.43
2018-12-14T12:54:57.971Z,26.23
2018-12-14T12:57:26.471Z,27.80
2018-12-14T12:59:54.705Z,28.97
2018-12-14T13:02:22.834Z,27.37
2018-12-14T13:04:51.672Z,27.13
2018-12-14T13:07:19.804Z,29.97
2018-12-14T13:09:47.920Z,32.57
2018-12-14T13:12:16.686Z,27.63
2018-12-14T13:14:44.803Z,29.23
2018-12-14T13:17:12.944Z,26.97
2018-12-14T13:19:41.112Z,28.37
2018-12-14T13:22:09.287Z,27.80
2018-12-14T13:24:37.475Z,25.60
2018-12-14T13:27:05.575Z,25.57
2018-12-14T13:29:33.869Z,29.37
2018-12-14T13:32:01.997Z,29.93
2018-12-14T13:34:30.244Z,30.70
2018-12-14T13:36:58.449Z,30.93
2018-12-14T13:39:26.589Z,28.63
2018-12-14T13:41:54.718Z,26.97
2018-12-14T13:44:22.885Z,30.27
2018-12-14T13:46:51.178Z,29.27
2018-12-14T13:49:19.295Z,30.97
2018-12-14T13:51:47.606Z,26.67
2018-12-14T13:54:15.849Z,29.10
2018-12-14T13:56:44.398Z,26.93
2018-12-14T13:59:12.551Z,30.90
2018-12-14T14:01:40.873Z,29.87
2018-12-14T14:04:09.055Z,28.53
2018-12-14T14:06:37.580Z,31.93
2018-12-14T14:09:06.831Z,34.00
2018-12-14T14:11:35.083Z,31.53
2018-12-14T14:14:03.428Z,31.47
2018-12-14T14:16:31.645Z,62.57
2018-12-14T14:18:59.847Z,37.90
2018-12-14T14:21:33.696Z,32.47
2018-12-14T14:24:01.957Z,30.70
2018-12-14T14:26:30.304Z,32.37
2018-12-14T14:28:58.561Z,30.40
2018-12-14T14:31:26.779Z,30.10
2018-12-14T14:33:54.949Z,31.30
2018-12-14T14:36:23.097Z,34.40
2018-12-14T14:38:51.279Z,35.90
2018-12-14T14:41:19.430Z,34.23
2018-12-14T14:43:47.626Z,35.70
2018-12-14T14:46:15.776Z,33.73
2018-12-14T14:48:44.050Z,36.90
2018-12-14T14:51:12.939Z,33.27
2018-12-14T14:53:41.147Z,35.73
2018-12-14T14:56:09.288Z,33.37
2018-12-14T14:58:37.454Z,35.33
2018-12-14T15:01:05.736Z,35.93
2018-12-14T15:03:33.936Z,35.50
2018-12-14T15:06:02.236Z,37.03
2018-12-14T15:08:30.390Z,38.07
2018-12-14T15:10:58.545Z,37.03
2018-12-14T15:13:29.709Z,37.37
2018-12-14T15:15:58.360Z,38.10
2018-12-14T15:18:26.594Z,37.03
2018-12-14T15:20:54.780Z,35.67
2018-12-14T15:23:23.263Z,36.37
2018-12-14T15:25:51.425Z,39.13
2018-12-14T15:28:19.654Z,39.50
2018-12-14T15:30:47.773Z,36.03
2018-12-14T15:33:15.991Z,37.03
2018-12-14T15:35:44.096Z,35.07
2018-12-14T15:38:12.303Z,40.50
2018-12-14T15:40:40.716Z,35.23
2018-12-14T15:43:08.951Z,36.67
2018-12-14T15:45:37.112Z,38.07
2018-12-14T15:48:05.621Z,37.23
2018-12-14T15:50:33.955Z,37.63
2018-12-14T15:53:02.219Z,39.57
2018-12-14T15:55:30.485Z,41.03
2018-12-14T15:57:58.775Z,40.07
2018-12-14T16:00:27.275Z,36.60
2018-12-14T16:02:56.291Z,39.67
2018-12-14T16:05:24.669Z,41.17
2018-12-14T16:07:52.824Z,38.37
2018-12-14T16:10:21.029Z,39.20
2018-12-14T16:12:49.190Z,37.40
2018-12-14T16:15:20.345Z,44.67
2018-12-14T16:17:47.684Z,42.90
2018-12-14T16:20:15.947Z,39.43
2018-12-14T16:22:44.296Z,42.20
2018-12-14T16:25:12.697Z,40.20
2018-12-14T16:27:41.049Z,39.87
2018-12-14T16:30:10.344Z,39.73
2018-12-14T16:32:38.539Z,37.17
2018-12-14T16:35:07.022Z,39.97
2018-12-14T16:37:35.224Z,40.30
2018-12-14T16:40:03.804Z,41.77
2018-12-14T16:42:31.947Z,37.37
2018-12-14T16:45:00.076Z,36.07
2018-12-14T16:47:28.524Z,40.10
2018-12-14T16:49:56.804Z,41.73
2018-12-14T16:52:25.004Z,39.63
2018-12-14T16:54:53.382Z,44.47
2018-12-14T16:57:24.554Z,40.20
2018-12-14T16:59:52.782Z,43.63
2018-12-14T17:02:21.157Z,39.53
2018-12-14T17:04:49.529Z,43.33
2018-12-14T17:07:17.761Z,45.60
2018-12-14T17:09:46.255Z,42.43
2018-12-14T17:12:14.692Z,43.33
2018-12-14T17:14:42.921Z,47.30
2018-12-14T17:17:11.413Z,45.97
2018-12-14T17:19:39.627Z,42.23
2018-12-14T17:22:08.747Z,44.60
2018-12-14T17:24:36.906Z,44.07
2018-12-14T17:27:05.230Z,44.20
2018-12-14T17:29:33.467Z,41.63
2018-12-14T17:32:01.590Z,46.23
2018-12-14T17:34:30.384Z,47.37
2018-12-14T17:36:58.500Z,46.27
2018-12-14T17:39:26.678Z,43.07
2018-12-14T17:41:55.522Z,44.67
2018-12-14T17:44:23.917Z,44.87
2018-12-14T17:46:52.468Z,45.10
2018-12-14T17:49:20.658Z,43.63
2018-12-14T17:51:49.402Z,45.50
2018-12-14T17:54:17.709Z,42.50
2018-12-14T17:56:45.960Z,42.00
2018-12-14T17:59:14.223Z,44.33
2018-12-14T18:01:42.530Z,47.13
2018-12-14T18:04:10.740Z,43.83
2018-12-14T18:06:39.062Z,46.10
2018-12-14T18:09:07.255Z,46.47
2018-12-14T18:11:35.481Z,50.23
2018-12-14T18:14:03.890Z,51.00
2018-12-14T18:16:32.269Z,47.40
2018-12-14T18:19:01.115Z,44.50
2018-12-14T18:21:29.303Z,44.63
2018-12-14T18:23:57.557Z,49.90
2018-12-14T18:26:25.956Z,52.27
2018-12-14T18:28:54.573Z,49.50
2018-12-14T18:31:23.507Z,48.37
2018-12-14T18:33:51.682Z,48.17
2018-12-14T18:36:19.923Z,55.47
2018-12-14T18:38:48.400Z,52.03
2018-12-14T18:41:16.876Z,47.80
2018-12-14T18:43:45.161Z,51.23
2018-12-14T18:46:13.314Z,47.30
2018-12-14T18:48:41.515Z,48.13
2018-12-14T18:51:09.680Z,48.17
2018-12-14T18:53:37.961Z,50.57
2018-12-14T18:56:06.137Z,48.10
2018-12-14T18:58:34.336Z,46.30
2018-12-14T19:01:02.540Z,47.67
2018-12-14T19:03:30.754Z,51.07
2018-12-14T19:05:59.007Z,52.00
2018-12-14T19:08:27.209Z,56.70
2018-12-14T19:10:55.412Z,53.33
2018-12-14T19:13:23.561Z,53.80
2018-12-14T19:15:51.785Z,56.33
2018-12-14T19:18:19.970Z,46.60
2018-12-14T19:20:48.481Z,50.33
2018-12-14T19:23:19.667Z,49.67
2018-12-14T19:25:47.045Z,47.73
2018-12-14T19:28:15.290Z,52.80
2018-12-14T19:30:43.565Z,50.77
2018-12-14T19:33:11.782Z,48.53
2018-12-14T19:35:40.234Z,51.33
2018-12-14T19:38:09.447Z,52.27
2018-12-14T19:40:37.694Z,51.00
2018-12-14T19:43:05.963Z,55.13
2018-12-14T19:45:34.380Z,52.40
2018-12-14T19:48:02.646Z,48.77
2018-12-14T19:50:31.185Z,55.50
2018-12-14T19:52:59.528Z,51.77
2018-12-14T19:55:27.801Z,46.37
2018-12-14T19:57:56.093Z,54.73
2018-12-14T20:00:24.403Z,55.57
2018-12-14T20:05:40.635Z,47.50
2018-12-14T20:08:08.912Z,51.47
2018-12-14T20:10:37.091Z,53.27
2018-12-14T20:13:05.365Z,53.77
2018-12-14T20:15:33.699Z,51.97
2018-12-14T20:18:01.997Z,51.67
2018-12-14T20:20:30.375Z,48.60
2018-12-14T20:22:58.620Z,53.57
2018-12-14T20:25:26.905Z,49.03
2018-12-14T20:27:55.160Z,54.73
2018-12-14T20:30:23.560Z,51.57
2018-12-14T20:32:51.733Z,50.17
2018-12-14T20:35:20.563Z,50.33
2018-12-14T20:37:49.327Z,51.63
2018-12-14T20:40:17.483Z,55.57
2018-12-14T20:42:45.679Z,52.70
2018-12-14T20:45:13.919Z,47.73
2018-12-14T20:47:45.966Z,52.93
2018-12-14T20:50:14.266Z,47.43
2018-12-14T20:52:42.573Z,54.13
2018-12-14T20:55:11.055Z,50.87
2018-12-14T20:57:39.217Z,52.93
2018-12-14T21:00:10.924Z,51.67
2018-12-14T21:02:39.075Z,48.57
2018-12-14T21:05:07.632Z,56.63
2018-12-14T21:07:35.801Z,52.67
2018-12-14T21:10:05.677Z,53.00
2018-12-14T21:12:33.957Z,51.07
2018-12-14T21:15:02.191Z,54.67
2018-12-14T21:17:30.592Z,48.97
2018-12-14T21:19:58.793Z,48.30
2018-12-14T21:22:27.333Z,57.47
2018-12-14T21:24:55.537Z,51.17
2018-12-14T21:27:24.307Z,49.83
2018-12-14T21:29:52.436Z,52.33
2018-12-14T21:32:21.560Z,45.07
2018-12-14T21:34:51.939Z,49.37
2018-12-14T21:37:20.096Z,50.90
2018-12-14T21:39:48.281Z,51.97
2018-12-14T21:42:16.442Z,51.40
2018-12-14T21:44:44.556Z,42.67
2018-12-14T21:47:12.746Z,48.40
2018-12-14T21:49:41.552Z,44.10
2018-12-14T21:52:09.710Z,51.07
2018-12-14T21:54:37.896Z,49.27
2018-12-14T21:57:06.312Z,48.17
2018-12-14T21:59:34.485Z,46.90
2018-12-14T22:02:04.106Z,50.63
2018-12-14T22:04:32.223Z,46.67
2018-12-14T22:07:00.652Z,52.73
2018-12-14T22:09:28.800Z,48.83
2018-12-14T22:11:56.942Z,45.63
2018-12-14T22:14:25.862Z,44.13
2018-12-14T22:16:54.016Z,52.77
2018-12-14T22:19:22.196Z,54.53
2018-12-14T22:21:50.366Z,47.83
2018-12-14T22:24:18.640Z,44.37
2018-12-14T22:26:47.466Z,43.43
2018-12-14T22:29:15.704Z,47.80
2018-12-14T22:31:44.014Z,47.27
2018-12-14T22:34:12.220Z,47.77
2018-12-14T22:36:40.395Z,48.93
2018-12-14T22:39:08.941Z,48.73
2018-12-14T22:41:37.080Z,47.83
2018-12-14T22:44:05.332Z,49.60
2018-12-14T22:46:33.527Z,46.53
2018-12-14T22:49:01.669Z,51.83
2018-12-14T22:51:29.774Z,49.80
2018-12-14T22:53:57.957Z,42.83
2018-12-14T22:56:26.127Z,47.60
2018-12-14T22:58:54.401Z,43.57
2018-12-14T23:01:22.569Z,44.90
2018-12-14T23:03:50.728Z,44.80
2018-12-14T23:06:18.895Z,41.57
2018-12-14T23:08:47.059Z,44.17
2018-12-14T23:11:15.219Z,48.47
2018-12-14T23:13:43.428Z,46.40
2018-12-14T23:16:11.603Z,45.80
2018-12-14T23:18:39.817Z,44.40
2018-12-14T23:21:07.991Z,46.00
2018-12-14T23:23:36.363Z,47.40
2018-12-14T23:26:04.537Z,47.30
2018-12-14T23:28:32.737Z,46.13
2018-12-14T23:31:00.931Z,44.27
2018-12-14T23:33:29.362Z,42.67
2018-12-14T23:35:57.531Z,42.47
2018-12-14T23:38:25.679Z,43.97
2018-12-14T23:40:53.830Z,44.53
2018-12-14T23:43:21.936Z,43.87
2018-12-14T23:45:50.191Z,43.57
2018-12-14T23:48:18.365Z,40.53
2018-12-14T23:50:46.888Z,44.57
2018-12-14T23:53:14.980Z,39.43
2018-12-14T23:55:43.193Z,38.20
2018-12-14T23:58:11.336Z,39.87
